createdAt,value
2018-11-12T00:00:05.830Z,0.00
2018-11-12T00:01:06.497Z,0.00
2018-11-12T00:02:06.493Z,0.00
2018-11-12T00:03:05.749Z,0.00
2018-11-12T00:04:06.040Z,0.00
2018-11-12T00:05:06.484Z,0.00
2018-11-12T00:06:06.483Z,0.00
2018-11-12T00:07:06.488Z,0.00
2018-11-12T00:08:06.040Z,0.00
2018-11-12T00:09:05.573Z,0.00
2018-11-12T00:10:06.487Z,0.00
2018-11-12T00:11:06.494Z,0.00
2018-11-12T00:12:05.489Z,0.00
2018-11-12T00:13:05.547Z,0.00
2018-11-12T00:14:05.987Z,0.00
2018-11-12T00:15:05.536Z,0.00
2018-11-12T00:16:05.987Z,0.00
2018-11-12T00:17:05.387Z,0.00
2018-11-12T00:18:05.311Z,0.00
2018-11-12T00:19:05.545Z,0.00
2018-11-12T00:20:05.985Z,0.00
2018-11-12T00:21:05.543Z,0.00
2018-11-12T00:22:05.240Z,0.00
2018-11-12T00:23:05.983Z,0.00
2018-11-12T00:24:05.179Z,0.00
2018-11-12T00:25:05.141Z,0.00
2018-11-12T00:26:05.089Z,0.00
2018-11-12T00:27:05.106Z,0.00
2018-11-12T00:28:05.019Z,0.00
2018-11-12T00:29:05.003Z,0.00
2018-11-12T00:30:04.959Z,0.00
2018-11-12T00:31:05.487Z,0.00
2018-11-12T00:32:05.043Z,0.00
2018-11-12T00:33:05.487Z,0.00
2018-11-12T00:34:05.485Z,0.00
2018-11-12T00:35:04.813Z,0.00
2018-11-12T00:36:04.830Z,0.00
2018-11-12T00:37:05.052Z,0.00
2018-11-12T00:38:05.486Z,0.00
2018-11-12T00:39:05.485Z,0.00
2018-11-12T00:40:05.486Z,0.00
2018-11-12T00:41:05.491Z,0.00
2018-11-12T00:42:04.651Z,0.00
2018-11-12T00:43:04.579Z,0.00
2018-11-12T00:44:04.549Z,0.00
2018-11-12T00:45:04.538Z,0.00
2018-11-12T00:46:04.554Z,0.00
2018-11-12T00:47:04.987Z,0.00
2018-11-12T00:48:06.987Z,0.00
2018-11-12T00:49:04.442Z,0.00
2018-11-12T00:50:05.246Z,0.00
2018-11-12T00:51:04.343Z,0.00
2018-11-12T00:52:04.544Z,0.00
2018-11-12T00:53:04.992Z,0.00
2018-11-12T00:54:04.988Z,0.00
2018-11-12T00:55:04.564Z,0.00
2018-11-12T00:56:12.375Z,0.00
2018-11-12T00:57:04.992Z,0.00
2018-11-12T00:58:04.548Z,0.00
2018-11-12T00:59:05.005Z,0.00
2018-11-12T01:00:04.990Z,0.00
2018-11-12T01:01:04.054Z,0.00
2018-11-12T01:02:04.080Z,0.00
2018-11-12T01:03:04.990Z,0.00
2018-11-12T01:04:04.502Z,0.00
2018-11-12T01:05:04.488Z,0.00
2018-11-12T01:06:04.496Z,0.00
2018-11-12T01:07:03.944Z,0.00
2018-11-12T01:08:03.856Z,0.00
2018-11-12T01:09:03.824Z,0.00
2018-11-12T01:10:04.492Z,0.00
2018-11-12T01:11:03.769Z,0.00
2018-11-12T01:12:03.791Z,0.00
2018-11-12T01:13:03.714Z,0.00
2018-11-12T01:14:04.493Z,0.00
2018-11-12T01:15:04.053Z,0.00
2018-11-12T01:16:03.672Z,0.00
2018-11-12T01:17:04.492Z,0.00
2018-11-12T01:18:04.062Z,0.00
2018-11-12T01:19:06.415Z,0.00
2018-11-12T01:20:04.058Z,0.00
2018-11-12T01:21:04.001Z,0.00
2018-11-12T01:22:03.995Z,0.00
2018-11-12T01:23:04.005Z,0.00
2018-11-12T01:24:03.557Z,0.00
2018-11-12T01:25:04.000Z,0.00
2018-11-12T01:26:03.373Z,0.00
2018-11-12T01:27:03.311Z,0.00
2018-11-12T01:28:03.570Z,0.00
2018-11-12T01:29:03.997Z,0.00
2018-11-12T01:30:03.224Z,0.00
2018-11-12T01:31:03.238Z,0.00
2018-11-12T01:32:03.994Z,0.00
2018-11-12T01:33:03.133Z,0.00
2018-11-12T01:34:03.104Z,0.00
2018-11-12T01:35:03.997Z,0.00
2018-11-12T01:36:03.561Z,0.00
2018-11-12T01:37:04.000Z,0.00
2018-11-12T01:38:02.989Z,0.00
2018-11-12T01:39:02.958Z,0.00
2018-11-12T01:40:03.502Z,0.00
2018-11-12T01:41:03.059Z,0.00
2018-11-12T01:42:02.913Z,0.00
2018-11-12T01:43:02.841Z,0.00
2018-11-12T01:44:03.500Z,0.00
2018-11-12T01:45:03.504Z,0.00
2018-11-12T01:46:03.050Z,0.00
2018-11-12T01:47:02.769Z,0.00
2018-11-12T01:48:03.497Z,0.00
2018-11-12T01:49:03.501Z,0.00
2018-11-12T01:50:04.406Z,0.00
2018-11-12T01:51:03.506Z,0.00
2018-11-12T01:52:03.056Z,0.00
2018-11-12T01:53:03.059Z,0.00
2018-11-12T01:54:02.527Z,0.00
2018-11-12T01:55:02.497Z,0.00
2018-11-12T01:56:03.001Z,0.00
2018-11-12T01:57:02.436Z,0.00
2018-11-12T01:58:02.452Z,0.00
2018-11-12T01:59:03.000Z,0.00
2018-11-12T02:00:03.009Z,0.00
2018-11-12T02:01:03.003Z,0.00
2018-11-12T02:02:03.000Z,0.00
2018-11-12T02:03:02.561Z,0.00
2018-11-12T02:04:02.233Z,0.00
2018-11-12T02:05:03.062Z,0.00
2018-11-12T02:06:03.003Z,0.00
2018-11-12T02:07:02.148Z,0.00
2018-11-12T02:08:02.620Z,0.00
2018-11-12T02:09:03.067Z,0.00
2018-11-12T02:10:03.002Z,0.00
2018-11-12T02:11:03.003Z,0.00
2018-11-12T02:12:02.514Z,0.00
2018-11-12T02:13:02.054Z,0.00
2018-11-12T02:14:02.508Z,0.00
2018-11-12T02:15:01.913Z,0.00
2018-11-12T02:16:01.889Z,0.00
2018-11-12T02:17:01.856Z,0.00
2018-11-12T02:18:01.865Z,0.00
2018-11-12T02:19:02.061Z,0.00
2018-11-12T02:20:02.506Z,0.00
2018-11-12T02:21:01.739Z,0.00
2018-11-12T02:22:02.505Z,0.00
2018-11-12T02:23:01.682Z,0.00
2018-11-12T02:24:01.697Z,0.00
2018-11-12T02:25:02.508Z,0.00
2018-11-12T02:26:02.506Z,0.00
2018-11-12T02:27:01.574Z,0.00
2018-11-12T02:28:02.518Z,0.00
2018-11-12T02:29:01.583Z,0.00
2018-11-12T02:30:01.481Z,0.00
2018-11-12T02:31:01.449Z,0.00
2018-11-12T02:32:02.015Z,0.00
2018-11-12T02:33:02.031Z,0.00
2018-11-12T02:34:01.572Z,0.00
2018-11-12T02:35:01.337Z,0.00
2018-11-12T02:36:02.009Z,0.00
2018-11-12T02:37:01.273Z,0.00
2018-11-12T02:38:02.022Z,0.00
2018-11-12T02:39:01.565Z,0.00
2018-11-12T02:40:01.228Z,0.00
2018-11-12T02:41:02.005Z,0.00
2018-11-12T02:42:01.134Z,0.00
2018-11-12T02:43:02.016Z,0.00
2018-11-12T02:44:01.080Z,0.00
2018-11-12T02:45:01.567Z,0.00
2018-11-12T02:46:01.010Z,0.00
2018-11-12T02:47:00.983Z,0.00
2018-11-12T02:48:00.957Z,0.00
2018-11-12T02:49:01.514Z,0.00
2018-11-12T02:50:01.075Z,0.00
2018-11-12T02:51:01.512Z,0.00
2018-11-12T02:52:00.834Z,0.00
2018-11-12T02:53:01.114Z,0.00
2018-11-12T02:54:01.515Z,0.00
2018-11-12T02:55:01.071Z,0.00
2018-11-12T02:56:00.771Z,0.00
2018-11-12T02:57:00.693Z,0.00
2018-11-12T02:58:01.510Z,0.00
2018-11-12T02:59:01.516Z,0.00
2018-11-12T03:00:01.512Z,0.00
2018-11-12T03:01:01.061Z,0.00
2018-11-12T03:02:01.517Z,0.00
2018-11-12T03:03:01.021Z,0.00
2018-11-12T03:04:00.483Z,0.00
2018-11-12T03:05:00.577Z,0.00
2018-11-12T03:06:01.012Z,0.00
2018-11-12T03:07:00.568Z,0.00
2018-11-12T03:08:01.015Z,0.00
2018-11-12T03:09:00.339Z,0.00
2018-11-12T03:10:00.305Z,0.00
2018-11-12T03:11:00.587Z,0.00
2018-11-12T03:12:00.376Z,0.00
2018-11-12T03:13:00.219Z,0.00
2018-11-12T03:14:01.010Z,0.00
2018-11-12T03:15:01.011Z,0.00
2018-11-12T03:16:00.175Z,0.00
2018-11-12T03:17:01.017Z,0.00
2018-11-12T03:18:00.076Z,0.00
2018-11-12T03:19:01.018Z,0.00
2018-11-12T03:20:00.069Z,0.00
2018-11-12T03:20:59.982Z,0.00
2018-11-12T03:22:02.516Z,0.00
2018-11-12T03:23:00.513Z,0.00
2018-11-12T03:24:00.075Z,0.00
2018-11-12T03:24:59.862Z,0.00
2018-11-12T03:25:59.840Z,0.00
2018-11-12T03:26:59.806Z,0.00
2018-11-12T03:28:00.515Z,0.00
2018-11-12T03:29:00.086Z,0.00
2018-11-12T03:29:59.720Z,0.00
2018-11-12T03:30:59.753Z,0.00
2018-11-12T03:32:00.518Z,0.00
2018-11-12T03:33:00.516Z,0.00
2018-11-12T03:33:59.610Z,0.00
2018-11-12T03:35:00.516Z,0.00
2018-11-12T03:36:00.075Z,0.00
2018-11-12T03:37:00.015Z,0.00
2018-11-12T03:38:00.031Z,0.00
2018-11-12T03:38:59.496Z,0.00
2018-11-12T03:40:00.021Z,0.00
2018-11-12T03:41:00.022Z,0.00
2018-11-12T03:41:59.367Z,0.00
2018-11-12T03:42:59.571Z,0.00
2018-11-12T03:43:59.303Z,0.00
2018-11-12T03:45:00.030Z,0.00
2018-11-12T03:45:59.246Z,0.00
2018-11-12T03:46:59.225Z,0.00
2018-11-12T03:47:59.586Z,0.00
2018-11-12T03:48:59.573Z,0.00
2018-11-12T03:49:59.133Z,0.00
2018-11-12T03:51:00.026Z,0.00
2018-11-12T03:52:00.023Z,0.00
2018-11-12T03:52:59.576Z,0.00
2018-11-12T03:53:59.521Z,0.00
2018-11-12T03:54:59.521Z,0.00
2018-11-12T03:55:59.525Z,0.00
2018-11-12T03:56:58.968Z,0.00
2018-11-12T03:57:59.520Z,0.00
2018-11-12T03:58:59.521Z,0.00
2018-11-12T03:59:58.898Z,0.00
2018-11-12T04:00:59.075Z,0.00
2018-11-12T04:01:58.778Z,0.00
2018-11-12T04:02:59.077Z,0.00
2018-11-12T04:03:59.530Z,0.00
2018-11-12T04:04:59.528Z,0.00
2018-11-12T04:05:59.519Z,0.00
2018-11-12T04:06:58.631Z,0.00
2018-11-12T04:07:58.657Z,0.00
2018-11-12T04:08:59.525Z,0.00
2018-11-12T04:09:59.521Z,0.00
2018-11-12T04:10:58.516Z,0.00
2018-11-12T04:11:58.540Z,0.00
2018-11-12T04:12:58.500Z,0.00
2018-11-12T04:13:59.020Z,0.00
2018-11-12T04:14:59.026Z,0.00
2018-11-12T04:15:58.370Z,0.00
2018-11-12T04:16:59.027Z,0.00
2018-11-12T04:17:58.573Z,0.00
2018-11-12T04:18:58.575Z,0.00
2018-11-12T04:19:58.252Z,0.00
2018-11-12T04:20:58.237Z,0.00
2018-11-12T04:21:59.076Z,0.00
2018-11-12T04:22:58.571Z,0.00
2018-11-12T04:23:58.181Z,0.00
2018-11-12T04:24:59.028Z,0.00
2018-11-12T04:25:58.580Z,0.00
2018-11-12T04:26:59.045Z,0.00
2018-11-12T04:27:58.023Z,0.00
2018-11-12T04:28:58.085Z,0.00
2018-11-12T04:29:57.967Z,0.00
2018-11-12T04:30:57.930Z,0.00
2018-11-12T04:31:58.528Z,0.00
2018-11-12T04:32:58.538Z,0.00
2018-11-12T04:33:58.083Z,0.00
2018-11-12T04:34:58.537Z,0.00
2018-11-12T04:35:58.537Z,0.00
2018-11-12T04:36:58.527Z,0.00
2018-11-12T04:37:58.527Z,0.00
2018-11-12T04:38:58.074Z,0.00
2018-11-12T04:39:57.711Z,0.00
2018-11-12T04:40:58.531Z,0.00
2018-11-12T04:41:57.609Z,0.00
2018-11-12T04:42:57.578Z,0.00
2018-11-12T04:43:58.089Z,0.00
2018-11-12T04:44:57.522Z,0.00
2018-11-12T04:45:57.489Z,0.00
2018-11-12T04:46:57.591Z,0.00
2018-11-12T04:47:58.028Z,0.00
2018-11-12T04:48:58.031Z,0.00
2018-11-12T04:49:57.370Z,0.00
2018-11-12T04:50:57.589Z,0.00
2018-11-12T04:51:57.312Z,0.00
2018-11-12T04:52:57.283Z,0.00
2018-11-12T04:53:58.028Z,0.00
2018-11-12T04:54:58.078Z,0.00
2018-11-12T04:55:57.239Z,0.00
2018-11-12T04:56:57.165Z,0.00
2018-11-12T04:57:58.036Z,0.00
2018-11-12T04:58:57.174Z,0.00
2018-11-12T04:59:58.060Z,0.00
2018-11-12T05:00:57.591Z,0.00
2018-11-12T05:01:57.580Z,0.00
2018-11-12T05:02:57.535Z,0.00
2018-11-12T05:03:56.956Z,0.00
2018-11-12T05:04:56.922Z,0.00
2018-11-12T05:05:56.937Z,0.00
2018-11-12T05:06:56.874Z,0.00
2018-11-12T05:07:57.532Z,0.00
2018-11-12T05:08:57.533Z,0.00
2018-11-12T05:09:56.777Z,0.00
2018-11-12T05:10:57.084Z,0.00
2018-11-12T05:11:56.713Z,0.00
2018-11-12T05:12:57.088Z,0.00
2018-11-12T05:13:56.710Z,0.00
2018-11-12T05:14:56.626Z,0.00
2018-11-12T05:15:56.596Z,0.00
2018-11-12T05:16:58.035Z,0.00
2018-11-12T05:17:56.542Z,0.00
2018-11-12T05:18:56.505Z,0.00
2018-11-12T05:19:56.478Z,0.00
2018-11-12T05:20:56.444Z,0.00
2018-11-12T05:21:56.589Z,0.00
2018-11-12T05:22:56.395Z,0.00
2018-11-12T05:23:56.401Z,0.00
2018-11-12T05:24:57.032Z,0.00
2018-11-12T05:25:56.294Z,0.00
2018-11-12T05:26:56.273Z,0.00
2018-11-12T05:27:57.043Z,0.00
2018-11-12T05:28:56.408Z,0.00
2018-11-12T05:29:56.176Z,0.00
2018-11-12T05:30:56.149Z,0.00
2018-11-12T05:31:56.122Z,0.00
2018-11-12T05:32:56.145Z,0.00
2018-11-12T05:33:56.059Z,0.00
2018-11-12T05:34:56.025Z,0.00
2018-11-12T05:35:56.058Z,0.00
2018-11-12T05:36:55.965Z,0.00
2018-11-12T05:37:56.032Z,0.00
2018-11-12T05:38:55.910Z,0.00
2018-11-12T05:39:55.895Z,0.00
2018-11-12T05:40:55.888Z,0.00
2018-11-12T05:41:55.819Z,0.00
2018-11-12T05:42:55.848Z,0.00
2018-11-12T05:43:55.763Z,0.00
2018-11-12T05:44:55.809Z,0.00
2018-11-12T05:45:55.700Z,0.00
2018-11-12T05:46:55.724Z,0.00
2018-11-12T05:47:55.645Z,4.00
2018-11-12T05:48:55.613Z,4.00
2018-11-12T05:49:55.583Z,0.00
2018-11-12T05:50:55.602Z,0.00
2018-11-12T05:51:55.524Z,4.00
2018-11-12T05:52:55.567Z,4.00
2018-11-12T05:53:55.496Z,4.00
2018-11-12T05:54:55.431Z,4.00
2018-11-12T05:55:55.409Z,4.00
2018-11-12T05:56:55.419Z,4.00
2018-11-12T05:57:55.399Z,8.00
2018-11-12T05:58:55.339Z,8.00
2018-11-12T05:59:55.286Z,12.00
2018-11-12T06:00:55.254Z,12.00
2018-11-12T06:01:55.226Z,16.00
2018-11-12T06:02:55.247Z,20.00
2018-11-12T06:03:55.162Z,24.00
2018-11-12T06:04:55.192Z,24.00
2018-11-12T06:05:55.113Z,32.00
2018-11-12T06:06:55.079Z,32.00
2018-11-12T06:07:55.088Z,40.00
2018-11-12T06:08:55.014Z,48.00
2018-11-12T06:09:55.029Z,56.00
2018-11-12T06:10:55.548Z,64.00
2018-11-12T06:11:54.926Z,72.00
2018-11-12T06:12:54.942Z,80.00
2018-11-12T06:13:54.932Z,92.00
2018-11-12T06:14:54.836Z,100.00
2018-11-12T06:15:54.842Z,116.00
2018-11-12T06:16:54.801Z,128.00
2018-11-12T06:17:54.749Z,144.00
2018-11-12T06:18:54.797Z,160.00
2018-11-12T06:19:54.693Z,172.00
2018-11-12T06:20:54.657Z,192.00
2018-11-12T06:21:54.633Z,212.00
2018-11-12T06:22:54.606Z,228.00
2018-11-12T06:23:54.644Z,252.00
2018-11-12T06:24:54.538Z,280.00
2018-11-12T06:25:54.566Z,300.00
2018-11-12T06:26:54.479Z,328.00
2018-11-12T06:27:54.496Z,360.00
2018-11-12T06:28:54.417Z,388.00
2018-11-12T06:29:54.401Z,416.00
2018-11-12T06:30:54.403Z,448.00
2018-11-12T06:31:54.334Z,476.00
2018-11-12T06:32:54.301Z,500.00
2018-11-12T06:33:54.272Z,528.00
2018-11-12T06:34:54.241Z,552.00
2018-11-12T06:35:54.316Z,580.00
2018-11-12T06:36:54.265Z,608.00
2018-11-12T06:37:54.200Z,644.00
2018-11-12T06:38:54.130Z,676.00
2018-11-12T06:39:54.100Z,716.00
2018-11-12T06:40:54.164Z,748.00
2018-11-12T06:41:54.046Z,776.00
2018-11-12T06:42:54.025Z,808.00
2018-11-12T06:43:53.977Z,840.00
2018-11-12T06:44:53.955Z,884.00
2018-11-12T06:45:53.956Z,932.00
2018-11-12T06:46:53.898Z,984.00
2018-11-12T06:47:53.858Z,1028.00
2018-11-12T06:48:53.822Z,1056.00
2018-11-12T06:49:53.828Z,1068.00
2018-11-12T06:50:53.820Z,1092.00
2018-11-12T06:51:53.734Z,1148.00
2018-11-12T06:52:53.881Z,1224.00
2018-11-12T06:53:53.719Z,1320.00
2018-11-12T06:54:53.650Z,1436.00
2018-11-12T06:55:53.614Z,1548.00
2018-11-12T06:56:53.586Z,1644.00
2018-11-12T06:57:53.612Z,1736.00
2018-11-12T06:58:53.533Z,1812.00
2018-11-12T06:59:53.501Z,1884.00
2018-11-12T07:00:53.569Z,1932.00
2018-11-12T07:01:53.449Z,1936.00
2018-11-12T07:02:53.405Z,1924.00
2018-11-12T07:03:53.377Z,1920.00
2018-11-12T07:04:53.369Z,1972.00
2018-11-12T07:05:53.373Z,2052.00
2018-11-12T07:06:53.416Z,2160.00
2018-11-12T07:07:53.276Z,2220.00
2018-11-12T07:08:53.229Z,2232.00
2018-11-12T07:09:53.199Z,2216.00
2018-11-12T07:10:53.215Z,2196.00
2018-11-12T07:11:53.143Z,2144.00
2018-11-12T07:12:54.053Z,2092.00
2018-11-12T07:13:53.125Z,2044.00
2018-11-12T07:14:53.061Z,2008.00
2018-11-12T07:15:53.081Z,1984.00
2018-11-12T07:16:52.988Z,1972.00
2018-11-12T07:17:52.962Z,1968.00
2018-11-12T07:18:53.004Z,1988.00
2018-11-12T07:19:52.901Z,1976.00
2018-11-12T07:20:52.923Z,1952.00
2018-11-12T07:21:52.854Z,1924.00
2018-11-12T07:22:52.867Z,1912.00
2018-11-12T07:23:52.949Z,1904.00
2018-11-12T07:24:52.758Z,1888.00
2018-11-12T07:25:52.730Z,1884.00
2018-11-12T07:26:52.700Z,1904.00
2018-11-12T07:27:52.716Z,1960.00
2018-11-12T07:28:52.663Z,2032.00
2018-11-12T07:29:52.612Z,2096.00
2018-11-12T07:30:53.226Z,2176.00
2018-11-12T07:31:52.552Z,2248.00
2018-11-12T07:32:52.523Z,2292.00
2018-11-12T07:33:52.492Z,2320.00
2018-11-12T07:34:52.464Z,2332.00
2018-11-12T07:35:52.491Z,2312.00
2018-11-12T07:36:52.405Z,2264.00
2018-11-12T07:37:53.058Z,2196.00
2018-11-12T07:38:52.350Z,2128.00
2018-11-12T07:39:52.320Z,2072.00
2018-11-12T07:40:52.353Z,2060.00
2018-11-12T07:41:52.272Z,2080.00
2018-11-12T07:42:52.238Z,2140.00
2018-11-12T07:43:52.203Z,2236.00
2018-11-12T07:44:52.176Z,2324.00
2018-11-12T07:45:52.193Z,2408.00
2018-11-12T07:46:52.115Z,2516.00
2018-11-12T07:47:52.093Z,2644.00
2018-11-12T07:48:52.159Z,2776.00
2018-11-12T07:49:52.033Z,2912.00
2018-11-12T07:50:52.053Z,3032.00
2018-11-12T07:51:51.985Z,3108.00
2018-11-12T07:52:52.967Z,3120.00
2018-11-12T07:53:51.918Z,3100.00
2018-11-12T07:54:51.988Z,3064.00
2018-11-12T07:55:51.856Z,3024.00
2018-11-12T07:56:51.848Z,2976.00
2018-11-12T07:57:52.558Z,2896.00
2018-11-12T07:58:51.782Z,2784.00
2018-11-12T07:59:52.120Z,2704.00
2018-11-12T08:00:51.713Z,2656.00
2018-11-12T08:01:51.684Z,2612.00
2018-11-12T08:02:51.683Z,2544.00
2018-11-12T08:03:51.629Z,2520.00
2018-11-12T08:04:51.661Z,2532.00
2018-11-12T08:05:51.578Z,2564.00
2018-11-12T08:06:51.551Z,2568.00
2018-11-12T08:07:51.517Z,2536.00
2018-11-12T08:08:51.546Z,2468.00
2018-11-12T08:09:51.526Z,2372.00
2018-11-12T08:10:51.428Z,2260.00
2018-11-12T08:11:51.462Z,2176.00
2018-11-12T08:12:51.387Z,2104.00
2018-11-12T08:13:51.345Z,2048.00
2018-11-12T08:14:51.409Z,2036.00
2018-11-12T08:15:51.351Z,2080.00
2018-11-12T08:16:51.263Z,2160.00
2018-11-12T08:17:51.306Z,2268.00
2018-11-12T08:18:51.217Z,2372.00
2018-11-12T08:19:51.177Z,2440.00
2018-11-12T08:20:51.193Z,2488.00
2018-11-12T08:21:52.123Z,2472.00
2018-11-12T08:22:52.069Z,2444.00
2018-11-12T08:23:51.105Z,2420.00
2018-11-12T08:24:51.566Z,2388.00
2018-11-12T08:25:51.128Z,2340.00
2018-11-12T08:26:50.981Z,2300.00
2018-11-12T08:27:50.996Z,2288.00
2018-11-12T08:28:50.928Z,2288.00
2018-11-12T08:29:50.915Z,2276.00
2018-11-12T08:30:50.918Z,2244.00
2018-11-12T08:31:50.840Z,2200.00
2018-11-12T08:32:50.831Z,2168.00
2018-11-12T08:33:50.781Z,2180.00
2018-11-12T08:34:50.766Z,2224.00
2018-11-12T08:35:50.773Z,2304.00
2018-11-12T08:36:50.764Z,2436.00
2018-11-12T08:37:51.572Z,2656.00
2018-11-12T08:38:50.647Z,2956.00
2018-11-12T08:39:51.650Z,3224.00
2018-11-12T08:40:50.705Z,3424.00
2018-11-12T08:41:50.609Z,3548.00
2018-11-12T08:42:50.626Z,3632.00
2018-11-12T08:43:50.502Z,3708.00
2018-11-12T08:44:51.074Z,3804.00
2018-11-12T08:45:50.447Z,3980.00
2018-11-12T08:46:50.424Z,4228.00
2018-11-12T08:47:50.444Z,4512.00
2018-11-12T08:48:50.382Z,4768.00
2018-11-12T08:49:50.515Z,4880.00
2018-11-12T08:50:50.315Z,4940.00
2018-11-12T08:51:50.288Z,5028.00
2018-11-12T08:52:50.303Z,4972.00
2018-11-12T08:53:50.244Z,4820.00
2018-11-12T08:54:50.225Z,4680.00
2018-11-12T08:55:50.179Z,4632.00
2018-11-12T08:56:50.154Z,4660.00
2018-11-12T08:57:50.169Z,4708.00
2018-11-12T08:58:50.096Z,4668.00
2018-11-12T08:59:50.142Z,4528.00
2018-11-12T09:00:50.141Z,4424.00
2018-11-12T09:01:50.144Z,4552.00
2018-11-12T09:02:50.051Z,4808.00
2018-11-12T09:03:49.971Z,5020.00
2018-11-12T09:04:49.946Z,5080.00
2018-11-12T09:05:50.605Z,5108.00
2018-11-12T09:06:49.874Z,5072.00
2018-11-12T09:07:50.139Z,4932.00
2018-11-12T09:08:49.894Z,4812.00
2018-11-12T09:09:50.636Z,4608.00
2018-11-12T09:10:49.765Z,4484.00
2018-11-12T09:11:49.745Z,4444.00
2018-11-12T09:12:49.720Z,4380.00
2018-11-12T09:13:50.147Z,4184.00
2018-11-12T09:14:49.661Z,3932.00
2018-11-12T09:15:49.748Z,3884.00
2018-11-12T09:16:49.651Z,3896.00
2018-11-12T09:17:50.079Z,3732.00
2018-11-12T09:18:49.610Z,3540.00
2018-11-12T09:19:49.601Z,3456.00
2018-11-12T09:20:49.506Z,3376.00
2018-11-12T09:21:49.484Z,3276.00
2018-11-12T09:22:49.473Z,3280.00
2018-11-12T09:23:49.637Z,3444.00
2018-11-12T09:24:49.391Z,3676.00
2018-11-12T09:25:50.107Z,4008.00
2018-11-12T09:26:49.409Z,4360.00
2018-11-12T09:27:49.315Z,4476.00
2018-11-12T09:28:49.322Z,4416.00
2018-11-12T09:29:50.007Z,4312.00
2018-11-12T09:30:50.675Z,4268.00
2018-11-12T09:31:49.219Z,4260.00
2018-11-12T09:32:49.190Z,4160.00
2018-11-12T09:33:49.144Z,3984.00
2018-11-12T09:34:49.207Z,3804.00
2018-11-12T09:35:49.120Z,3788.00
2018-11-12T09:36:49.181Z,3928.00
2018-11-12T09:37:49.047Z,4236.00
2018-11-12T09:38:49.557Z,4576.00
2018-11-12T09:39:49.050Z,4756.00
2018-11-12T09:40:49.008Z,4872.00
2018-11-12T09:41:48.938Z,5056.00
2018-11-12T09:42:48.910Z,5268.00
2018-11-12T09:43:48.909Z,5352.00
2018-11-12T09:44:48.905Z,5284.00
2018-11-12T09:45:49.153Z,5160.00
2018-11-12T09:46:48.818Z,4984.00
2018-11-12T09:47:48.808Z,4844.00
2018-11-12T09:48:49.661Z,4704.00
2018-11-12T09:49:48.747Z,4560.00
2018-11-12T09:50:48.728Z,4400.00
2018-11-12T09:51:48.664Z,4140.00
2018-11-12T09:52:48.633Z,3784.00
2018-11-12T09:53:48.718Z,3480.00
2018-11-12T09:54:49.156Z,3296.00
2018-11-12T09:55:48.610Z,3192.00
2018-11-12T09:56:48.528Z,2948.00
2018-11-12T09:57:48.506Z,2816.00
2018-11-12T09:58:48.495Z,2904.00
2018-11-12T09:59:49.089Z,2876.00
2018-11-12T10:00:48.671Z,2724.00
2018-11-12T10:01:48.998Z,2568.00
2018-11-12T10:02:49.222Z,2548.00
2018-11-12T10:03:49.200Z,2560.00
2018-11-12T10:04:49.518Z,2512.00
2018-11-12T10:05:49.492Z,2460.00
2018-11-12T10:06:50.925Z,2420.00
2018-11-12T10:07:49.778Z,2396.00
2018-11-12T10:08:50.812Z,2420.00
2018-11-12T10:09:49.997Z,2380.00
2018-11-12T10:10:50.425Z,2272.00
2018-11-12T10:11:50.533Z,2144.00
2018-11-12T10:12:51.007Z,2056.00
2018-11-12T10:13:50.239Z,2008.00
2018-11-12T10:14:50.082Z,2032.00
2018-11-12T10:15:51.400Z,2108.00
2018-11-12T10:16:50.289Z,2100.00
2018-11-12T10:17:51.239Z,2200.00
2018-11-12T10:18:47.947Z,2356.00
2018-11-12T10:19:47.975Z,2468.00
2018-11-12T10:20:47.931Z,2528.00
2018-11-12T10:21:47.865Z,2608.00
2018-11-12T10:22:47.845Z,2628.00
2018-11-12T10:23:47.849Z,2664.00
2018-11-12T10:24:47.781Z,2796.00
2018-11-12T10:25:47.750Z,2980.00
2018-11-12T10:26:47.726Z,3300.00
2018-11-12T10:27:47.701Z,3560.00
2018-11-12T10:28:47.731Z,3764.00
2018-11-12T10:29:48.595Z,3732.00
2018-11-12T10:30:47.614Z,3456.00
2018-11-12T10:31:48.501Z,3104.00
2018-11-12T10:32:47.591Z,2900.00
2018-11-12T10:33:47.614Z,2848.00
2018-11-12T10:34:47.511Z,2832.00
2018-11-12T10:35:47.481Z,2628.00
2018-11-12T10:36:47.470Z,2524.00
2018-11-12T10:37:47.426Z,2432.00
2018-11-12T10:38:47.455Z,2360.00
2018-11-12T10:39:47.402Z,2188.00
2018-11-12T10:40:47.393Z,1988.00
2018-11-12T10:41:47.329Z,1876.00
2018-11-12T10:42:47.449Z,1836.00
2018-11-12T10:43:47.323Z,1768.00
2018-11-12T10:44:47.246Z,1636.00
2018-11-12T10:45:47.212Z,1576.00
2018-11-12T10:46:47.190Z,1540.00
2018-11-12T10:47:47.195Z,1544.00
2018-11-12T10:48:47.183Z,1528.00
2018-11-12T10:49:47.110Z,1624.00
2018-11-12T10:50:47.085Z,1596.00
2018-11-12T10:51:47.049Z,1600.00
2018-11-12T10:52:47.036Z,1596.00
2018-11-12T10:53:50.208Z,1620.00
2018-11-12T10:54:47.079Z,1924.00
2018-11-12T10:55:47.050Z,2336.00
2018-11-12T10:56:46.924Z,2656.00
2018-11-12T10:57:46.898Z,3392.00
2018-11-12T10:58:46.914Z,4460.00
2018-11-12T10:59:46.893Z,5496.00
2018-11-12T11:00:46.842Z,6404.00
2018-11-12T11:01:46.839Z,6972.00
2018-11-12T11:02:46.754Z,7324.00
2018-11-12T11:03:46.729Z,7580.00
2018-11-12T11:04:46.703Z,7740.00
2018-11-12T11:05:46.726Z,7828.00
2018-11-12T11:06:46.702Z,7884.00
2018-11-12T11:07:46.625Z,7900.00
2018-11-12T11:08:48.515Z,7928.00
2018-11-12T11:09:46.646Z,8008.00
2018-11-12T11:10:46.585Z,8120.00
2018-11-12T11:11:46.578Z,8208.00
2018-11-12T11:12:46.487Z,8240.00
2018-11-12T11:13:46.486Z,8228.00
2018-11-12T11:14:46.452Z,8148.00
2018-11-12T11:15:46.408Z,8048.00
2018-11-12T11:16:46.456Z,7972.00
2018-11-12T11:17:46.359Z,7936.00
2018-11-12T11:18:46.330Z,7920.00
2018-11-12T11:19:46.316Z,7912.00
2018-11-12T11:20:46.284Z,7892.00
2018-11-12T11:21:46.310Z,7852.00
2018-11-12T11:22:46.229Z,7812.00
2018-11-12T11:23:46.211Z,7780.00
2018-11-12T11:24:46.196Z,7772.00
2018-11-12T11:25:46.186Z,7784.00
2018-11-12T11:26:46.287Z,7856.00
2018-11-12T11:27:46.108Z,7904.00
2018-11-12T11:28:46.084Z,7904.00
2018-11-12T11:29:46.053Z,7960.00
2018-11-12T11:30:46.108Z,8040.00
2018-11-12T11:31:46.065Z,8136.00
2018-11-12T11:32:45.992Z,8204.00
2018-11-12T11:33:45.963Z,8188.00
2018-11-12T11:34:46.612Z,8096.00
2018-11-12T11:35:45.898Z,7992.00
2018-11-12T11:36:46.172Z,7880.00
2018-11-12T11:37:45.902Z,7800.00
2018-11-12T11:38:45.832Z,7708.00
2018-11-12T11:39:45.800Z,7576.00
2018-11-12T11:40:45.876Z,7424.00
2018-11-12T11:41:45.746Z,7304.00
2018-11-12T11:42:45.778Z,7176.00
2018-11-12T11:43:45.702Z,7048.00
2018-11-12T11:44:46.616Z,6928.00
2018-11-12T11:45:46.612Z,6852.00
2018-11-12T11:46:45.663Z,6836.00
2018-11-12T11:47:45.824Z,6864.00
2018-11-12T11:48:45.594Z,6868.00
2018-11-12T11:49:45.560Z,6848.00
2018-11-12T11:50:45.767Z,6840.00
2018-11-12T11:51:45.535Z,6816.00
2018-11-12T11:52:45.466Z,6752.00
2018-11-12T11:53:45.481Z,6668.00
2018-11-12T11:54:45.423Z,6620.00
2018-11-12T11:55:45.443Z,6572.00
2018-11-12T11:56:45.584Z,6536.00
2018-11-12T11:57:45.363Z,6492.00
2018-11-12T11:58:45.426Z,6488.00
2018-11-12T11:59:45.293Z,6536.00
2018-11-12T12:00:45.271Z,6620.00
2018-11-12T12:01:45.280Z,6744.00
2018-11-12T12:02:45.274Z,6856.00
2018-11-12T12:03:45.249Z,6916.00
2018-11-12T12:04:45.178Z,6952.00
2018-11-12T12:05:45.197Z,6952.00
2018-11-12T12:06:45.115Z,6952.00
2018-11-12T12:07:45.625Z,6964.00
2018-11-12T12:08:45.118Z,6944.00
2018-11-12T12:09:45.095Z,6904.00
2018-11-12T12:10:45.060Z,6856.00
2018-11-12T12:11:44.992Z,6828.00
2018-11-12T12:12:45.013Z,6816.00
2018-11-12T12:13:44.938Z,6796.00
2018-11-12T12:14:45.621Z,6796.00
2018-11-12T12:15:44.909Z,6736.00
2018-11-12T12:16:44.890Z,6552.00
2018-11-12T12:17:44.887Z,6332.00
2018-11-12T12:18:44.826Z,6128.00
2018-11-12T12:19:44.795Z,6036.00
2018-11-12T12:20:44.771Z,5948.00
2018-11-12T12:21:44.745Z,5796.00
2018-11-12T12:22:44.783Z,5724.00
2018-11-12T12:23:44.691Z,5712.00
2018-11-12T12:24:44.828Z,5688.00
2018-11-12T12:25:44.711Z,5700.00
2018-11-12T12:26:44.617Z,5728.00
2018-11-12T12:27:44.665Z,5744.00
2018-11-12T12:28:44.621Z,5760.00
2018-11-12T12:29:44.548Z,5872.00
2018-11-12T12:30:44.516Z,5956.00
2018-11-12T12:31:44.495Z,6016.00
2018-11-12T12:32:44.502Z,6064.00
2018-11-12T12:33:44.498Z,6136.00
2018-11-12T12:34:44.534Z,6184.00
2018-11-12T12:35:44.420Z,6224.00
2018-11-12T12:36:44.438Z,6264.00
2018-11-12T12:37:44.377Z,6188.00
2018-11-12T12:38:44.359Z,6148.00
2018-11-12T12:39:44.297Z,6060.00